LGRP/RHO METAR and TAF weather

Enter ICAO airport designator
Station Type Date Time Source
LGRP METAR 2022/01/29 12:50 UTC NOAA

LGRP 291250Z 09006KT 9999 FEW015 13/05 Q1018 NOSIG


Station Type Date Time Source
LGRP Decoded METAR 2022/01/29 12:50 UTC NOAA

Rhodes Airport , Greece (LGRP) 36-24N 028-05E 11M
Jan 29, 2022 - 07:50 AM EST / 2022.01.29 1250 UTC
Wind: from the E (090 degrees) at 7 MPH (6 KT):0
Visibility: greater than 7 mile(s):0
Sky conditions: mostly clear
Temperature: 55 F (13 C)
Dew Point: 41 F (5 C)
Relative Humidity: 58%
Pressure (altimeter): 30.06 in. Hg (1018 hPa)
ob: LGRP 291250Z 09006KT 9999 FEW015 13/05 Q1018 NOSIG
cycle: 13

Station Type Date Time Source
LGRP TAF 2022/01/29 12:12 UTC NOAA

TAF LGRP 291100Z 2912/3012 14015KT 9999 FEW015 SCT050
TEMPO 2915/3009 14018G28KT PROB40
TEMPO 2918/3012 5000 RA FEW012 FEW018TCU BKN030 PROB40
TEMPO 2921/3012 3000 TSRA SCT012 FEW018CB BKN020

Example: see airport list